Time;durP1;ratioP1;P1;durP2;ratioP2;P2;SDS_P1;SDS_P2;PMS_P1;PMS_P2;Temp;Humidity;BMP_temperature;BMP_pressure;BME280_temperature;BME280_humidity;BME280_pressure;Samples;Min_cycle;Max_cycle;Signal;HPM_P1;HPM_P2
2023/08/06 00:00:59;;;;;;;5.50;3.92;;;;;;;14.75;100.00;100291.00;4986761;28;20061;-73
2023/08/06 00:03:27;;;;;;;7.65;3.97;;;;;;;14.77;100.00;100292.72;4966354;28;20054;-73
2023/08/06 00:05:54;;;;;;;5.45;3.70;;;;;;;14.76;100.00;100294.53;4962580;28;20053;-73
2023/08/06 00:08:21;;;;;;;6.10;3.92;;;;;;;14.79;100.00;100291.72;4988382;28;20402;-73
2023/08/06 00:10:48;;;;;;;7.32;3.90;;;;;;;14.81;100.00;100288.97;4986614;28;20120;-73
2023/08/06 00:13:15;;;;;;;6.45;4.30;;;;;;;14.81;100.00;100292.47;4987454;28;20105;-73
2023/08/06 00:15:43;;;;;;;8.85;4.53;;;;;;;14.80;100.00;100284.59;4972587;28;20723;-73
2023/08/06 00:18:10;;;;;;;5.95;3.92;;;;;;;14.79;100.00;100280.22;4986927;28;20042;-73
2023/08/06 00:20:40;;;;;;;6.93;4.07;;;;;;;14.80;100.00;100282.81;4987739;28;20041;-73
2023/08/06 00:23:08;;;;;;;6.45;4.13;;;;;;;14.79;100.00;100278.44;4988440;28;20039;-73
2023/08/06 00:25:36;;;;;;;5.15;4.22;;;;;;;14.78;100.00;100273.22;4985446;28;20053;-73
2023/08/06 00:28:03;;;;;;;8.18;4.05;;;;;;;14.79;100.00;100274.94;4989046;28;20046;-73
2023/08/06 00:30:31;;;;;;;5.07;4.38;;;;;;;14.78;100.00;100266.13;4986790;28;20046;-73
2023/08/06 00:32:59;;;;;;;7.00;4.40;;;;;;;14.78;100.00;100265.25;4971182;28;20050;-73
2023/08/06 00:35:26;;;;;;;8.77;4.55;;;;;;;14.77;100.00;100263.53;4970121;28;20046;-73
2023/08/06 00:37:53;;;;;;;7.32;4.70;;;;;;;14.76;100.00;100275.97;4970303;28;20046;-73
2023/08/06 00:40:22;;;;;;;9.43;4.60;;;;;;;14.75;100.00;100267.13;4967842;28;20422;-73
2023/08/06 00:42:49;;;;;;;8.68;4.90;;;;;;;14.74;100.00;100259.28;4985604;28;20047;-73
2023/08/06 00:45:16;;;;;;;6.82;5.10;;;;;;;14.73;100.00;100271.69;4987723;28;20042;-73
2023/08/06 00:47:45;;;;;;;6.22;5.18;;;;;;;14.76;100.00;100262.69;4973885;28;20097;-73
2023/08/06 00:50:13;;;;;;;7.35;5.32;;;;;;;14.77;100.00;100263.53;4969877;28;20073;-73
2023/08/06 00:52:40;;;;;;;6.90;4.75;;;;;;;14.79;100.00;100265.19;4987626;28;20125;-73
2023/08/06 00:55:10;;;;;;;7.65;5.20;;;;;;;14.79;100.00;100262.53;4987401;28;20074;-73
2023/08/06 00:57:37;;;;;;;7.47;5.25;;;;;;;14.81;100.00;100257.13;4970395;28;20461;-73
2023/08/06 01:00:05;;;;;;;8.57;5.43;;;;;;;14.81;100.00;100263.28;4954406;28;20101;-73
2023/08/06 01:02:32;;;;;;;7.35;5.28;;;;;;;14.82;100.00;100258.84;4969684;28;20046;-73
2023/08/06 01:05:00;;;;;;;7.45;5.70;;;;;;;14.79;100.00;100264.31;4987364;28;20134;-73
2023/08/06 01:07:57;;;;;;;9.40;5.63;;;;;;;14.79;100.00;100262.53;4988251;28;20046;-73
2023/08/06 01:11:05;;;;;;;9.35;5.43;;;;;;;14.79;100.00;100262.53;4968602;28;20078;-73
2023/08/06 01:13:49;;;;;;;7.00;5.32;;;;;;;14.78;100.00;100257.28;4968446;28;20053;-73
2023/08/06 01:16:18;;;;;;;9.32;5.55;;;;;;;14.77;100.00;100259.09;4970345;28;20061;-73
2023/08/06 01:18:49;;;;;;;6.10;5.50;;;;;;;14.78;100.00;100252.84;4984699;28;20085;-73
2023/08/06 01:21:18;;;;;;;8.10;5.78;;;;;;;14.79;100.00;100253.69;4987191;28;20133;-73
2023/08/06 01:23:47;;;;;;;9.43;5.40;;;;;;;14.79;100.00;100248.41;4959282;28;20050;-73
2023/08/06 01:26:30;;;;;;;7.43;5.40;;;;;;;14.77;100.00;100248.50;4965379;28;20053;-73
2023/08/06 01:29:15;;;;;;;9.48;5.32;;;;;;;14.76;100.00;100241.47;4986477;28;20537;-73
2023/08/06 01:31:44;;;;;;;;;;;;;;;14.73;100.00;100241.63;4974194;28;20043;-73
2023/08/06 01:34:25;;;;;;;10.00;5.20;;;;;;;14.74;100.00;100244.22;4986869;28;19980;-73
2023/08/06 01:36:53;;;;;;;8.88;5.10;;;;;;;14.73;100.00;100252.25;4987790;28;20141;-73
2023/08/06 01:39:22;;;;;;;10.27;4.95;;;;;;;14.72;100.00;100250.53;4969301;28;20694;-73
2023/08/06 01:41:49;;;;;;;6.85;5.03;;;;;;;14.74;100.00;100248.66;4986792;28;20122;-73
2023/08/06 01:44:17;;;;;;;6.80;5.28;;;;;;;14.75;100.00;100250.38;4987458;28;20494;-73
2023/08/06 01:46:44;;;;;;;8.90;4.90;;;;;;;14.75;100.00;100247.72;4972303;28;20051;-73
2023/08/06 01:49:11;;;;;;;8.05;4.80;;;;;;;14.78;100.00;100244.91;4965858;28;20470;-73
2023/08/06 01:51:39;;;;;;;6.95;4.35;;;;;;;14.78;100.00;100244.91;4976983;28;20081;-73
2023/08/06 01:54:06;;;;;;;8.02;4.78;;;;;;;14.78;100.00;100241.38;4991253;28;20050;-73
2023/08/06 01:56:33;;;;;;;6.95;4.40;;;;;;;14.78;100.00;100244.91;4972876;28;20055;-73
2023/08/06 01:59:00;;;;;;;7.63;4.65;;;;;;;14.76;100.00;100246.78;4973357;28;20039;-73
2023/08/06 02:01:31;;;;;;;5.22;4.10;;;;;;;14.76;100.00;100244.13;4973434;28;20057;-73
2023/08/06 02:03:58;;;;;;;6.80;4.63;;;;;;;14.74;100.00;100244.22;4990416;28;20057;-73
2023/08/06 02:06:25;;;;;;;8.70;4.35;;;;;;;14.74;100.00;100243.34;4973819;28;20053;-73
2023/08/06 02:08:52;;;;;;;9.05;4.43;;;;;;;14.72;100.00;100253.19;4971025;28;20116;-73
2023/08/06 02:11:19;;;;;;;9.40;4.88;;;;;;;14.70;100.00;100242.69;4972408;28;20117;-73
2023/08/06 02:13:46;;;;;;;7.35;4.47;;;;;;;14.66;100.00;100240.25;4989962;28;20057;-73
2023/08/06 02:16:18;;;;;;;7.75;4.70;;;;;;;14.65;100.00;100246.50;4973715;28;20153;-73
2023/08/06 02:18:45;;;;;;;9.07;4.30;;;;;;;14.64;100.00;100244.78;4989920;28;20611;-73
2023/08/06 02:21:12;;;;;;;6.47;4.55;;;;;;;14.62;100.00;100242.22;4988958;28;20054;-73
2023/08/06 02:23:39;;;;;;;7.47;4.07;;;;;;;14.61;100.00;100245.81;4999921;28;20042;-73
2023/08/06 02:26:06;;;;;;;5.75;4.13;;;;;;;14.59;100.00;100242.41;4989610;28;20054;-73
2023/08/06 02:28:33;;;;;;;8.15;4.43;;;;;;;14.59;100.00;100237.97;4989776;28;20034;-73
2023/08/06 02:31:00;;;;;;;10.63;4.72;;;;;;;14.60;100.00;100238.81;4989279;28;20074;-73
2023/08/06 02:33:28;;;;;;;8.45;4.80;;;;;;;14.60;100.00;100230.84;4989248;28;20177;-73
2023/08/06 02:36:01;;;;;;;7.68;4.65;;;;;;;14.60;100.00;100231.69;4989308;28;20046;-73
2023/08/06 02:38:33;;;;;;;5.85;4.30;;;;;;;14.61;100.00;100229.91;4990713;28;20069;-73
2023/08/06 02:41:04;;;;;;;7.28;4.72;;;;;;;14.62;100.00;100225.44;4984663;28;20047;-73
2023/08/06 02:43:31;;;;;;;7.10;4.60;;;;;;;14.60;100.00;100223.72;4989041;28;20054;-73
2023/08/06 02:46:00;;;;;;;8.95;4.60;;;;;;;14.60;100.00;100223.72;4978865;28;20050;-73
2023/08/06 02:48:28;;;;;;;8.38;4.85;;;;;;;14.62;100.00;100223.66;4975752;28;20034;-73
2023/08/06 02:50:59;;;;;;;7.35;4.53;;;;;;;14.64;100.00;100226.22;4987353;28;20050;-73
2023/08/06 02:53:28;;;;;;;8.75;5.03;;;;;;;14.60;100.00;100221.06;4972023;28;20781;-73
2023/08/06 02:55:56;;;;;;;9.00;4.75;;;;;;;14.59;100.00;100221.19;4971778;28;20077;-73
2023/08/06 02:58:31;;;;;;;7.18;5.00;;;;;;;14.58;100.00;100214.16;4971577;28;20035;-73
2023/08/06 03:01:07;;;;;;;8.80;5.25;;;;;;;14.56;100.00;100216.91;4971653;28;20046;-73
2023/08/06 03:03:47;;;;;;;9.75;4.93;;;;;;;14.56;100.00;100218.69;4968185;28;20078;-73
2023/08/06 03:06:21;;;;;;;10.05;5.10;;;;;;;14.56;100.00;100218.69;4953697;28;20046;-73
2023/08/06 03:08:52;;;;;;;6.47;4.65;;;;;;;14.56;100.00;100214.25;4971422;28;20349;-73
2023/08/06 03:11:20;;;;;;;8.45;4.80;;;;;;;14.58;100.00;100215.03;4965184;28;20137;-73
2023/08/06 03:13:49;;;;;;;10.07;5.50;;;;;;;14.60;100.00;100215.78;4971703;28;20073;-73
2023/08/06 03:16:17;;;;;;;6.45;4.85;;;;;;;14.61;100.00;100208.69;4972483;28;20469;-73
2023/08/06 03:18:44;;;;;;;7.72;5.20;;;;;;;14.61;100.00;100208.69;4972379;28;20046;-73
2023/08/06 03:21:11;;;;;;;7.50;5.43;;;;;;;14.59;100.00;100198.19;4988122;28;20077;-73
2023/08/06 03:23:39;;;;;;;6.38;5.05;;;;;;;14.60;100.00;100209.63;4989409;28;20517;-73
2023/08/06 03:26:06;;;;;;;7.85;5.55;;;;;;;14.60;100.00;100202.50;4969292;28;20046;-73
2023/08/06 03:28:34;;;;;;;7.30;5.20;;;;;;;14.60;100.00;100205.16;4989869;28;20038;-73
2023/08/06 03:31:03;;;;;;;8.45;5.40;;;;;;;14.57;100.00;100205.38;4971601;28;20051;-73
2023/08/06 03:33:37;;;;;;;12.02;5.90;;;;;;;14.55;100.00;100209.06;4991101;28;20125;-73
2023/08/06 03:36:08;;;;;;;7.78;5.70;;;;;;;14.54;100.00;100210.00;4969386;28;20054;-73
2023/08/06 03:38:37;;;;;;;8.27;5.57;;;;;;;14.54;100.00;100199.38;4955779;28;20049;-73
2023/08/06 03:41:07;;;;;;;13.00;6.18;;;;;;;14.54;100.00;100210.00;4956007;28;20565;-73
2023/08/06 03:43:34;;;;;;;10.57;6.40;;;;;;;14.53;100.00;100209.13;4969508;28;20050;-73
2023/08/06 03:46:04;;;;;;;9.05;6.70;;;;;;;14.52;100.00;100199.44;4978587;28;20471;-73
2023/08/06 03:48:31;;;;;;;8.93;6.30;;;;;;;14.55;100.00;100201.94;4974542;28;20068;-73
2023/08/06 03:51:01;;;;;;;8.90;6.47;;;;;;;14.54;100.00;100202.88;4971620;28;20054;-73
2023/08/06 03:53:32;;;;;;;8.13;6.30;;;;;;;14.53;100.00;100192.38;4987821;28;20049;-73
2023/08/06 03:56:00;;;;;;;11.02;6.40;;;;;;;14.49;100.00;100190.81;4971444;28;20050;-73
2023/08/06 03:58:29;;;;;;;9.68;6.70;;;;;;;14.48;100.00;100197.06;4970264;28;20046;-73
2023/08/06 04:01:05;;;;;;;8.23;6.70;;;;;;;14.48;100.00;100199.72;4966135;28;20041;-73
2023/08/06 04:03:44;;;;;;;10.50;7.07;;;;;;;14.45;100.00;100198.94;4955853;28;20050;-73
2023/08/06 04:06:12;;;;;;;9.77;7.70;;;;;;;14.45;100.00;100198.09;4971881;28;20097;-73
2023/08/06 04:08:40;;;;;;;9.93;6.68;;;;;;;14.44;100.00;100199.91;4970808;28;20092;-73
2023/08/06 04:11:08;;;;;;;12.55;6.85;;;;;;;14.43;100.00;100199.97;4967843;28;20176;-73
2023/08/06 04:13:35;;;;;;;11.95;7.05;;;;;;;14.43;100.00;100202.63;4984382;28;20051;-73
2023/08/06 04:16:03;;;;;;;10.23;7.32;;;;;;;14.43;100.00;100200.84;4971200;28;20489;-73
2023/08/06 04:18:32;;;;;;;13.48;7.47;;;;;;;14.45;100.00;100212.19;4983468;28;20492;-73
2023/08/06 04:20:59;;;;;;;11.40;7.47;;;;;;;14.45;100.00;100208.69;4936148;28;20059;-73
2023/08/06 04:23:26;;;;;;;10.82;7.82;;;;;;;14.46;100.00;100223.69;4965722;28;20581;-73
2023/08/06 04:25:58;;;;;;;13.27;7.88;;;;;;;14.48;100.00;100221.81;4971176;28;20049;-73
2023/08/06 04:28:30;;;;;;;12.18;7.63;;;;;;;14.49;100.00;100215.56;4969874;28;20120;-73
2023/08/06 04:30:59;;;;;;;11.63;7.65;;;;;;;14.54;100.00;100212.66;4986596;28;20141;-73
2023/08/06 04:33:27;;;;;;;14.13;8.40;;;;;;;14.58;100.00;100217.69;4970934;28;20057;-73
2023/08/06 04:35:57;;;;;;;13.90;8.30;;;;;;;14.60;100.00;100217.59;4971779;28;20046;-73
2023/08/06 04:38:26;;;;;;;11.32;7.82;;;;;;;14.62;100.00;100217.47;4968940;28;20130;-73
2023/08/06 04:40:55;;;;;;;11.88;8.00;;;;;;;14.62;100.00;100222.78;4936141;28;20062;-73
2023/08/06 04:43:24;;;;;;;11.68;8.38;;;;;;;14.66;100.00;100225.19;4983983;28;20069;-73
2023/08/06 04:45:55;;;;;;;11.98;8.40;;;;;;;14.69;100.00;100230.34;4974804;28;20050;-73
2023/08/06 04:48:23;;;;;;;12.40;8.23;;;;;;;14.72;100.00;100219.56;4970409;28;20045;-73
2023/08/06 04:50:50;;;;;;;13.30;8.88;;;;;;;14.77;100.00;100223.75;4987475;28;20069;-73
2023/08/06 04:53:18;;;;;;;13.85;9.57;;;;;;;14.82;100.00;100230.50;4986081;28;20581;-73
2023/08/06 04:55:45;;;;;;;16.08;9.20;;;;;;;14.86;100.00;100226.72;4969406;28;20494;-73
2023/08/06 04:58:13;;;;;;;12.48;8.88;;;;;;;14.91;100.00;100226.47;4969877;28;20047;-73
2023/08/06 05:00:40;;;;;;;14.07;8.85;;;;;;;14.97;100.00;100228.75;4986489;28;20050;-73
2023/08/06 05:03:07;;;;;;;13.40;9.10;;;;;;;15.04;100.00;100232.78;4987641;28;20113;-73
2023/08/06 05:05:35;;;;;;;14.90;9.13;;;;;;;15.13;100.00;100231.34;4987670;28;20492;-73
2023/08/06 05:08:02;;;;;;;14.98;9.85;;;;;;;15.27;100.00;100237.66;4988309;28;20061;-73
2023/08/06 05:10:29;;;;;;;12.55;8.95;;;;;;;15.34;100.00;100236.34;4971233;28;20039;-73
2023/08/06 05:12:56;;;;;;;13.50;9.05;;;;;;;15.45;100.00;100233.88;4986221;28;20046;-73
2023/08/06 05:15:25;;;;;;;12.35;9.65;;;;;;;15.53;100.00;100238.75;4987597;28;20060;-73
2023/08/06 05:17:52;;;;;;;13.77;9.75;;;;;;;15.55;100.00;100242.16;4970605;28;20042;-73
2023/08/06 05:20:20;;;;;;;16.17;9.27;;;;;;;15.59;100.00;100240.19;4988044;28;20049;-73
2023/08/06 05:22:47;;;;;;;15.20;9.55;;;;;;;15.60;100.00;100242.72;4970140;28;20113;-73
2023/08/06 05:25:14;;;;;;;11.77;8.93;;;;;;;15.66;100.00;100242.38;4987657;28;20051;-73
2023/08/06 05:27:42;;;;;;;15.90;9.50;;;;;;;15.67;100.00;100244.06;4971979;28;20047;-73
2023/08/06 05:30:10;;;;;;;12.68;9.25;;;;;;;15.69;100.00;100243.97;4990475;28;20042;-73
2023/08/06 05:32:37;;;;;;;12.73;9.55;;;;;;;15.75;100.00;100251.56;4990895;28;20046;-73
2023/08/06 05:35:06;;;;;;;15.65;9.43;;;;;;;15.81;100.00;100248.53;4990968;28;20521;-72
2023/08/06 05:37:33;;;;;;;13.55;9.02;;;;;;;15.95;100.00;100258.34;4991032;28;20046;-73
2023/08/06 05:40:01;;;;;;;13.68;8.80;;;;;;;16.10;100.00;100256.53;4990852;28;20042;-73
2023/08/06 05:42:28;;;;;;;12.38;9.02;;;;;;;16.79;100.00;100260.19;4973019;28;20054;-73
2023/08/06 05:44:55;;;;;;;11.65;8.80;;;;;;;18.00;100.00;100256.44;4991555;28;20510;-73
2023/08/06 05:47:22;;;;;;;12.68;8.55;;;;;;;18.39;97.02;100256.38;4994444;28;20046;-73
2023/08/06 05:49:49;;;;;;;11.35;7.65;;;;;;;18.40;96.19;100258.06;4973629;28;20108;-73
2023/08/06 05:52:16;;;;;;;11.23;8.05;;;;;;;18.30;95.69;100263.22;4972522;28;20422;-73
2023/08/06 05:54:43;;;;;;;11.50;8.20;;;;;;;18.25;95.42;100265.38;4991494;28;20502;-73
2023/08/06 05:57:10;;;;;;;10.63;7.47;;;;;;;18.79;94.41;100265.91;4989842;28;20053;-73
2023/08/06 05:59:38;;;;;;;11.43;7.45;;;;;;;19.04;93.00;100272.16;4990052;28;20503;-73
2023/08/06 06:02:05;;;;;;;9.80;7.78;;;;;;;20.09;88.95;100284.66;4990479;28;20046;-73
2023/08/06 06:04:32;;;;;;;11.70;7.03;;;;;;;20.06;89.71;100282.22;4990050;28;20490;-73
2023/08/06 06:07:00;;;;;;;10.38;6.80;;;;;;;19.87;89.37;100286.34;4990716;28;20100;-73
2023/08/06 06:09:27;;;;;;;8.82;6.72;;;;;;;19.66;89.61;100287.00;4991338;28;20577;-73
2023/08/06 06:11:54;;;;;;;7.07;4.80;;;;;;;19.52;87.80;100285.41;4990116;28;20046;-73
2023/08/06 06:14:21;;;;;;;6.25;4.65;;;;;;;19.30;85.79;100285.34;4989632;28;20046;-73
2023/08/06 06:16:48;;;;;;;7.90;5.30;;;;;;;19.08;86.89;100302.97;4991152;28;20097;-73
2023/08/06 06:19:15;;;;;;;8.75;5.22;;;;;;;18.90;88.61;100300.69;4989433;28;20046;-73
2023/08/06 06:21:42;;;;;;;6.50;4.65;;;;;;;18.73;89.51;100301.09;4971380;28;20046;-73
2023/08/06 06:24:09;;;;;;;5.65;4.30;;;;;;;18.57;90.22;100302.19;4973081;28;20439;-73
2023/08/06 06:26:36;;;;;;;7.35;4.55;;;;;;;18.32;89.49;100313.78;4990534;28;20116;-73
2023/08/06 06:29:03;;;;;;;7.25;5.30;;;;;;;18.14;90.09;100305.28;4988513;28;20133;-73
2023/08/06 06:31:34;;;;;;;8.73;5.28;;;;;;;18.04;90.48;100312.25;4989615;28;20061;-73
2023/08/06 06:34:01;;;;;;;8.38;4.85;;;;;;;17.96;91.08;100310.06;4990173;28;20034;-73
2023/08/06 06:36:29;;;;;;;5.07;4.13;;;;;;;17.90;90.41;100311.34;4989882;28;20622;-73
2023/08/06 06:38:56;;;;;;;6.53;4.13;;;;;;;17.83;90.64;100326.91;4973119;28;20047;-73
2023/08/06 06:41:23;;;;;;;8.60;3.97;;;;;;;17.77;89.75;100319.34;4991087;28;20078;-73
2023/08/06 06:43:51;;;;;;;7.95;5.05;;;;;;;17.73;89.90;100320.50;4988434;28;20117;-73
2023/08/06 06:46:18;;;;;;;5.60;4.47;;;;;;;17.69;89.97;100327.88;4981147;28;20391;-73
2023/08/06 06:48:45;;;;;;;8.85;5.03;;;;;;;17.66;90.30;100325.41;4988313;28;20046;-73
2023/08/06 06:51:12;;;;;;;5.57;4.78;;;;;;;17.63;90.95;100335.41;4989352;28;20082;-73
2023/08/06 06:53:40;;;;;;;6.78;5.35;;;;;;;17.61;91.08;100329.34;4988521;28;20046;-73
2023/08/06 06:56:07;;;;;;;6.88;5.05;;;;;;;17.61;90.60;100327.53;4972697;28;20050;-73
2023/08/06 06:58:34;;;;;;;8.18;5.10;;;;;;;17.63;90.57;100336.28;4987831;28;20042;-73
2023/08/06 07:01:01;;;;;;;9.07;4.25;;;;;;;17.66;90.35;100333.38;4989562;28;20050;-73
2023/08/06 07:03:28;;;;;;;4.95;4.35;;;;;;;17.72;90.15;100339.28;4989929;28;20066;-73
2023/08/06 07:05:59;;;;;;;5.47;4.35;;;;;;;17.76;90.36;100340.75;4989399;28;20058;-73
2023/08/06 07:08:27;;;;;;;7.45;4.50;;;;;;;17.84;90.51;100344.63;4989434;28;20413;-73
2023/08/06 07:11:05;;;;;;;6.47;4.85;;;;;;;17.95;90.15;100341.22;4989222;28;20140;-73
2023/08/06 07:13:35;;;;;;;7.93;4.68;;;;;;;18.07;89.86;100331.53;4972272;28;20054;-73
2023/08/06 07:16:02;;;;;;;7.38;5.00;;;;;;;18.27;88.83;100342.63;4972379;28;20050;-73
2023/08/06 07:18:30;;;;;;;6.00;4.22;;;;;;;18.39;88.09;100340.88;4971089;28;20050;-73
2023/08/06 07:20:58;;;;;;;7.68;4.63;;;;;;;18.38;87.68;100345.38;4989992;28;20076;-73
2023/08/06 07:23:25;;;;;;;5.63;4.50;;;;;;;18.35;87.90;100344.75;4965894;28;20065;-73
2023/08/06 07:25:53;;;;;;;6.13;4.32;;;;;;;18.30;87.63;100351.25;4970420;28;20050;-73
2023/08/06 07:28:20;;;;;;;6.88;4.30;;;;;;;18.24;86.75;100346.38;4941566;28;20507;-72
2023/08/06 07:30:47;;;;;;;8.75;4.65;;;;;;;18.12;86.62;100355.22;4986212;28;20046;-73
2023/08/06 07:33:14;;;;;;;6.40;5.05;;;;;;;17.99;86.38;100353.41;4971098;28;20129;-73
2023/08/06 07:35:43;;;;;;;6.75;4.22;;;;;;;17.84;86.52;100357.94;4968951;28;20046;-73
2023/08/06 07:38:10;;;;;;;8.90;5.00;;;;;;;17.72;86.90;100356.13;4961222;28;20039;-73
2023/08/06 07:40:38;;;;;;;7.25;5.45;;;;;;;17.61;87.65;100355.97;4988693;28;20042;-73
2023/08/06 07:43:05;;;;;;;6.30;5.60;;;;;;;17.53;88.60;100361.84;4972022;28;20043;-73
2023/08/06 07:45:37;;;;;;;8.45;6.38;;;;;;;17.47;89.19;100368.44;4969611;28;20050;-73
2023/08/06 07:48:04;;;;;;;7.07;4.68;;;;;;;17.43;89.76;100368.75;4989642;28;20050;-73
2023/08/06 07:50:32;;;;;;;7.55;5.60;;;;;;;17.39;89.58;100366.28;4988591;28;20109;-73
2023/08/06 07:52:59;;;;;;;6.50;4.13;;;;;;;17.37;89.16;100367.34;4955483;28;20042;-73
2023/08/06 07:55:27;;;;;;;9.98;5.22;;;;;;;17.34;89.14;100378.19;4964749;28;20069;-73
2023/08/06 07:57:54;;;;;;;7.97;5.82;;;;;;;17.32;89.38;100365.00;4955053;28;20050;-73
2023/08/06 08:00:21;;;;;;;10.93;6.60;;;;;;;17.33;89.70;100372.03;4988095;28;20121;-73
2023/08/06 08:02:48;;;;;;;10.95;7.60;;;;;;;17.30;89.71;100369.56;4989493;28;20046;-73
2023/08/06 08:05:16;;;;;;;8.00;7.10;;;;;;;17.27;90.94;100376.91;4989118;28;20387;-73
2023/08/06 08:07:46;;;;;;;8.63;7.32;;;;;;;17.24;91.04;100372.66;4988859;28;20510;-73
2023/08/06 08:10:13;;;;;;;11.13;7.85;;;;;;;17.25;91.60;100370.81;4988435;28;20773;-73
2023/08/06 08:12:40;;;;;;;10.70;8.32;;;;;;;17.28;91.17;100371.47;4971821;28;20050;-73
2023/08/06 08:15:07;;;;;;;12.23;8.10;;;;;;;17.32;91.10;100374.78;4988333;28;20097;-73
2023/08/06 08:17:34;;;;;;;10.18;8.10;;;;;;;17.42;91.21;100370.53;4957808;28;20491;-73
2023/08/06 08:20:02;;;;;;;8.98;7.38;;;;;;;17.58;91.22;100369.53;4969612;28;20050;-73
2023/08/06 08:22:29;;;;;;;7.18;6.28;;;;;;;17.65;89.34;100370.81;4968864;28;20077;-73
2023/08/06 08:24:57;;;;;;;7.43;6.47;;;;;;;17.66;88.72;100373.38;4952504;28;20047;-73
2023/08/06 08:27:24;;;;;;;10.77;9.38;;;;;;;17.70;87.87;100380.22;4960005;28;20514;-73
2023/08/06 08:29:51;;;;;;;11.00;8.43;;;;;;;17.68;88.22;100378.63;4969898;28;20046;-73
2023/08/06 08:32:18;;;;;;;9.40;8.50;;;;;;;17.63;87.98;100375.41;4988161;28;20380;-73
2023/08/06 08:34:45;;;;;;;6.88;6.07;;;;;;;17.59;88.88;100381.91;4970609;28;20046;-73
2023/08/06 08:37:13;;;;;;;6.95;6.25;;;;;;;17.63;89.22;100378.94;4987175;28;20578;-73
2023/08/06 08:39:40;;;;;;;6.57;5.90;;;;;;;17.63;89.71;100375.41;4987382;28;20550;-73
2023/08/06 08:42:10;;;;;;;8.02;6.47;;;;;;;17.69;90.45;100388.34;4988938;28;20042;-73
2023/08/06 08:44:39;;;;;;;7.40;6.63;;;;;;;17.79;90.58;100393.88;4985874;28;20043;-73
2023/08/06 08:47:08;;;;;;;7.80;7.00;;;;;;;17.81;89.48;100389.31;4987386;28;20604;-73
2023/08/06 08:49:37;;;;;;;8.02;7.22;;;;;;;17.84;89.78;100387.28;4988590;28;20413;-73
2023/08/06 08:52:10;;;;;;;7.93;7.13;;;;;;;17.88;89.78;100392.41;5003896;28;20538;-73
2023/08/06 08:54:39;;;;;;;9.40;7.10;;;;;;;17.87;89.65;100391.53;4988149;28;20117;-73
2023/08/06 08:57:07;;;;;;;5.55;5.05;;;;;;;17.85;88.05;100388.16;4988688;28;20053;-73
2023/08/06 08:59:34;;;;;;;5.85;5.28;;;;;;;17.85;87.84;100398.81;4969654;28;20462;-73
2023/08/06 09:02:02;;;;;;;6.00;5.40;;;;;;;17.80;89.62;100401.78;4954908;28;20066;-73
2023/08/06 09:04:35;;;;;;;6.18;5.53;;;;;;;17.70;89.79;100396.22;4973691;28;20054;-73
2023/08/06 09:07:05;;;;;;;7.45;6.30;;;;;;;17.54;90.62;100406.19;4973994;28;20043;-73
2023/08/06 09:09:37;;;;;;;7.00;6.07;;;;;;;17.47;91.83;100412.88;4990123;28;20085;-74
2023/08/06 09:12:14;;;;;;;6.78;6.15;;;;;;;17.29;91.91;100412.28;4975153;28;20054;-73
2023/08/06 09:14:42;;;;;;;8.32;7.45;;;;;;;17.11;93.78;100420.50;4991438;28;20046;-73
2023/08/06 09:17:12;;;;;;;10.23;7.88;;;;;;;16.94;94.93;100418.91;4991889;28;20053;-74
2023/08/06 09:19:45;;;;;;;7.05;6.35;;;;;;;16.70;94.68;100430.16;4991822;28;20049;-73
2023/08/06 09:22:13;;;;;;;2.80;2.50;;;;;;;16.43;93.91;100430.91;4992486;28;20453;-75
2023/08/06 09:24:42;;;;;;;1.90;1.50;;;;;;;16.07;93.70;100429.53;4991618;28;20058;-73
2023/08/06 09:27:14;;;;;;;1.52;1.08;;;;;;;15.71;94.89;100446.69;4991990;28;20492;-73
2023/08/06 09:29:45;;;;;;;1.60;1.35;;;;;;;15.42;95.83;100451.00;4989603;28;20077;-73
2023/08/06 09:32:13;;;;;;;3.10;1.77;;;;;;;15.16;97.66;100435.63;4990305;28;20038;-73
2023/08/06 09:34:43;;;;;;;2.75;1.90;;;;;;;14.95;98.24;100458.91;4958803;28;20093;-73
2023/08/06 09:37:11;;;;;;;2.63;1.95;;;;;;;14.75;99.86;100460.81;4990123;28;20054;-74
2023/08/06 09:39:43;;;;;;;2.95;1.98;;;;;;;14.62;100.00;100459.75;4991301;28;20105;-75
2023/08/06 09:42:10;;;;;;;3.10;2.20;;;;;;;14.52;100.00;100467.31;4990879;28;20050;-74
2023/08/06 09:44:40;;;;;;;3.67;1.92;;;;;;;14.43;100.00;100465.16;4990846;28;20038;-74
2023/08/06 09:47:07;;;;;;;4.07;2.90;;;;;;;14.35;100.00;100457.59;4990047;28;20126;-74
2023/08/06 09:49:34;;;;;;;3.88;2.20;;;;;;;14.32;100.00;100462.22;4973812;28;20569;-74
2023/08/06 09:52:02;;;;;;;3.55;2.75;;;;;;;14.27;100.00;100460.66;4991383;28;20679;-74
2023/08/06 09:54:31;;;;;;;3.10;2.80;;;;;;;14.27;100.00;100467.75;4992056;28;20392;-74
2023/08/06 09:56:59;;;;;;;3.97;2.80;;;;;;;14.21;100.00;100466.28;4991283;28;20054;-74
2023/08/06 09:59:28;;;;;;;3.30;3.00;;;;;;;14.18;100.00;100474.41;4968455;28;20411;-74
2023/08/06 10:01:55;;;;;;;4.97;3.30;;;;;;;14.17;100.00;100472.69;4970656;28;20156;-74
2023/08/06 10:04:24;;;;;;;4.18;2.85;;;;;;;14.19;100.00;100477.91;4990772;28;20549;-74
2023/08/06 10:07:00;;;;;;;3.08;2.78;;;;;;;14.22;100.00;100475.94;4989696;28;20050;-75
2023/08/06 10:09:29;;;;;;;5.97;3.13;;;;;;;14.24;100.00;100481.19;4991225;28;20061;-75
2023/08/06 10:11:58;;;;;;;3.35;2.88;;;;;;;14.22;100.00;100481.25;4989365;28;20058;-76
2023/08/06 10:14:32;;;;;;;5.50;2.95;;;;;;;14.24;100.00;100487.34;4989418;28;20196;-77
2023/08/06 10:17:01;;;;;;;3.65;3.08;;;;;;;14.23;100.00;100493.56;4990630;28;20505;-76
2023/08/06 10:19:30;;;;;;;3.92;2.90;;;;;;;14.21;100.00;100495.44;4989423;28;20532;-76
2023/08/06 10:22:12;;;;;;;4.43;2.80;;;;;;;14.21;100.00;100497.25;4973177;28;20042;-76
2023/08/06 10:24:56;;;;;;;4.95;3.40;;;;;;;14.19;100.00;100493.81;4973674;28;20073;-76
2023/08/06 10:27:35;;;;;;;;;;;;;;;14.15;100.00;100501.06;4972083;28;20058;-75
2023/08/06 10:30:32;;;;;;;3.67;2.90;;;;;;;14.19;100.00;100509.72;4971538;28;19922;-75
2023/08/06 10:33:02;;;;;;;4.30;3.63;;;;;;;14.18;100.00;100506.22;4989813;28;20038;-75
2023/08/06 10:35:40;;;;;;;4.05;3.65;;;;;;;14.19;100.00;100518.53;4989561;28;20133;-75
2023/08/06 10:38:21;;;;;;;5.35;3.30;;;;;;;14.20;100.00;100519.38;4989121;28;20039;-75
2023/08/06 10:40:55;;;;;;;4.10;3.35;;;;;;;14.20;100.00;100514.06;4973808;28;20125;-75
2023/08/06 10:43:39;;;;;;;4.75;3.50;;;;;;;14.22;100.00;100528.13;4989785;28;20047;-75
2023/08/06 10:46:20;;;;;;;4.57;3.67;;;;;;;14.17;100.00;100533.66;4987875;28;20054;-75
2023/08/06 10:48:47;;;;;;;4.05;3.65;;;;;;;14.20;100.00;100536.13;4960374;28;20042;-75
2023/08/06 10:51:15;;;;;;;4.20;3.30;;;;;;;14.23;100.00;100532.50;4988857;28;20050;-75
2023/08/06 10:53:46;;;;;;;5.15;3.67;;;;;;;14.23;100.00;100535.97;4971659;28;20117;-75
2023/08/06 10:56:18;;;;;;;6.28;4.00;;;;;;;14.25;100.00;100535.91;4989511;28;20043;-75
2023/08/06 10:58:47;;;;;;;4.25;3.50;;;;;;;14.28;100.00;100543.72;4990745;28;20050;-75
2023/08/06 11:01:15;;;;;;;5.05;3.67;;;;;;;14.28;100.00;100543.72;4988947;28;20062;-75
2023/08/06 11:03:46;;;;;;;5.70;3.72;;;;;;;14.28;100.00;100549.00;4987365;28;20534;-75
2023/08/06 11:06:23;;;;;;;4.28;3.17;;;;;;;14.28;100.00;100541.94;4988516;28;20049;-75
2023/08/06 11:08:55;;;;;;;5.88;4.25;;;;;;;14.25;100.00;100542.06;4972484;28;20109;-75
2023/08/06 11:11:23;;;;;;;9.00;5.38;;;;;;;14.23;100.00;100548.41;4973291;28;20053;-75
2023/08/06 11:13:52;;;;;;;8.05;5.22;;;;;;;14.24;100.00;100544.81;4988704;28;20569;-75
2023/08/06 11:16:26;;;;;;;9.02;6.20;;;;;;;14.28;100.00;100549.88;4988716;28;20105;-74
2023/08/06 11:18:56;;;;;;;6.10;5.18;;;;;;;14.37;100.00;100553.00;4972612;28;20046;-74
2023/08/06 11:21:26;;;;;;;5.65;4.43;;;;;;;14.43;100.00;100544.72;4972481;28;20050;-74
2023/08/06 11:23:53;;;;;;;5.20;3.65;;;;;;;14.47;100.00;100548.06;4988645;28;20046;-74
2023/08/06 11:26:23;;;;;;;5.22;3.88;;;;;;;14.45;100.00;100554.31;4989755;28;20049;-74
2023/08/06 11:28:50;;;;;;;6.18;4.07;;;;;;;14.45;100.00;100548.16;4988022;28;20053;-74